createdAt,value
2023-05-16T00:01:33.455Z,9.93
2023-05-16T00:04:00.448Z,11.13
2023-05-16T00:08:55.862Z,12.70
2023-05-16T00:11:22.594Z,11.02
2023-05-16T00:13:49.270Z,15.88
2023-05-16T00:16:16.129Z,9.55
2023-05-16T00:18:43.068Z,10.57
2023-05-16T00:21:10.407Z,13.57
2023-05-16T00:23:36.913Z,12.38
2023-05-16T00:26:03.543Z,11.05
2023-05-16T00:28:30.366Z,11.52
2023-05-16T00:30:56.843Z,13.07
2023-05-16T00:33:23.369Z,11.90
2023-05-16T00:35:50.390Z,13.25
2023-05-16T00:40:43.185Z,10.10
2023-05-16T00:43:09.994Z,14.38
2023-05-16T00:45:37.431Z,10.75
2023-05-16T00:48:04.926Z,10.38
2023-05-16T00:50:34.543Z,9.88
2023-05-16T00:53:01.278Z,10.65
2023-05-16T00:55:28.123Z,12.10
2023-05-16T00:57:57.558Z,10.65
2023-05-16T01:00:24.667Z,9.75
2023-05-16T01:02:52.326Z,11.35
2023-05-16T01:05:22.763Z,10.80
2023-05-16T01:07:49.316Z,9.80
2023-05-16T01:10:16.211Z,10.40
2023-05-16T01:13:05.520Z,10.82
2023-05-16T01:15:54.802Z,10.45
2023-05-16T01:19:09.625Z,10.45
2023-05-16T01:21:48.876Z,10.18
2023-05-16T01:24:54.789Z,11.35
2023-05-16T01:27:23.800Z,10.98
2023-05-16T01:29:56.303Z,12.10
2023-05-16T01:32:23.144Z,11.02
2023-05-16T01:34:53.047Z,14.25
2023-05-16T01:37:35.735Z,12.23
2023-05-16T01:40:20.252Z,12.85
2023-05-16T01:42:50.882Z,15.65
2023-05-16T01:45:32.079Z,16.25
2023-05-16T01:48:11.063Z,14.48
2023-05-16T01:50:46.922Z,14.30
2023-05-16T01:53:20.102Z,17.15
2023-05-16T01:55:52.566Z,19.20
2023-05-16T01:58:25.246Z,20.65
2023-05-16T02:01:00.145Z,16.92
2023-05-16T02:03:29.025Z,16.63
2023-05-16T02:05:55.577Z,24.23
2023-05-16T02:08:22.302Z,18.25
2023-05-16T02:10:48.805Z,20.00
2023-05-16T02:13:15.682Z,22.33
2023-05-16T02:15:42.126Z,20.17
2023-05-16T02:18:11.154Z,21.67
2023-05-16T02:20:38.035Z,20.17
2023-05-16T02:23:04.556Z,22.95
2023-05-16T02:25:31.038Z,21.05
2023-05-16T02:27:58.750Z,20.70
2023-05-16T02:30:25.565Z,21.23
2023-05-16T02:32:52.022Z,20.70
2023-05-16T02:35:20.661Z,20.83
2023-05-16T02:37:47.063Z,20.80
2023-05-16T02:40:14.463Z,19.48
2023-05-16T02:42:41.296Z,17.48
2023-05-16T02:45:08.474Z,19.40
2023-05-16T02:47:35.178Z,18.02
2023-05-16T02:50:01.871Z,17.85
2023-05-16T02:52:29.466Z,19.17
2023-05-16T02:55:15.846Z,16.35
2023-05-16T02:57:43.003Z,16.73
2023-05-16T03:00:10.427Z,8.65
2023-05-16T03:02:39.924Z,7.40
2023-05-16T03:05:06.706Z,8.20
2023-05-16T03:07:33.429Z,6.00
2023-05-16T03:10:00.155Z,6.80
2023-05-16T03:12:26.902Z,5.15
2023-05-16T03:14:53.381Z,3.67
2023-05-16T03:17:20.201Z,2.17
2023-05-16T03:19:47.511Z,1.17
2023-05-16T03:22:14.211Z,2.13
2023-05-16T03:24:40.841Z,2.85
2023-05-16T03:27:07.804Z,1.92
2023-05-16T03:29:34.324Z,3.05
2023-05-16T03:32:00.931Z,1.90
2023-05-16T03:34:27.813Z,1.88
2023-05-16T03:36:54.392Z,0.13
2023-05-16T03:39:21.664Z,1.27
2023-05-16T03:41:48.446Z,2.47
2023-05-16T03:44:15.205Z,1.55
2023-05-16T03:46:41.804Z,3.60
2023-05-16T03:49:08.434Z,3.10
2023-05-16T03:51:37.350Z,1.98
2023-05-16T03:54:03.985Z,3.03
2023-05-16T03:56:30.479Z,0.77
2023-05-16T03:58:57.188Z,5.55
2023-05-16T04:01:24.722Z,2.33
2023-05-16T04:03:51.204Z,4.22
2023-05-16T04:06:18.249Z,5.13
2023-05-16T04:08:44.964Z,1.45
2023-05-16T04:11:11.825Z,1.55
2023-05-16T04:13:38.577Z,4.93
2023-05-16T04:16:06.630Z,1.30
2023-05-16T04:18:33.564Z,3.08
2023-05-16T04:21:00.741Z,1.08
2023-05-16T04:25:54.193Z,0.90
2023-05-16T04:28:20.929Z,4.03
2023-05-16T04:30:47.607Z,2.55
2023-05-16T04:33:14.284Z,2.95
2023-05-16T04:35:41.052Z,3.85
2023-05-16T04:38:07.832Z,1.38
2023-05-16T04:40:34.277Z,0.70
2023-05-16T04:43:01.459Z,2.28
2023-05-16T04:47:54.804Z,1.55
2023-05-16T04:50:21.707Z,1.50
2023-05-16T04:52:48.579Z,1.65
2023-05-16T04:57:41.629Z,0.57
2023-05-16T05:00:08.797Z,1.27
2023-05-16T05:02:35.637Z,1.33
2023-05-16T05:05:02.435Z,2.45
2023-05-16T05:07:29.175Z,1.40
2023-05-16T05:09:55.776Z,1.88
2023-05-16T05:12:22.677Z,0.90
2023-05-16T05:14:49.626Z,1.90
2023-05-16T05:17:16.398Z,1.88
2023-05-16T05:19:43.288Z,0.38
2023-05-16T05:22:09.971Z,0.35
2023-05-16T05:24:36.579Z,3.08
2023-05-16T05:27:03.669Z,1.90
2023-05-16T05:29:30.391Z,0.30
2023-05-16T05:31:57.432Z,2.88
2023-05-16T05:36:50.514Z,0.65
2023-05-16T05:39:17.243Z,3.92
2023-05-16T05:41:44.009Z,1.13
2023-05-16T05:44:10.552Z,3.88
2023-05-16T05:46:37.705Z,1.50
2023-05-16T05:51:30.818Z,1.17
2023-05-16T05:53:57.575Z,1.38
2023-05-16T05:56:24.541Z,0.35
2023-05-16T05:58:52.209Z,4.93
2023-05-16T06:01:18.711Z,2.10
2023-05-16T06:03:46.400Z,2.22
2023-05-16T06:06:13.105Z,2.17
2023-05-16T06:08:39.877Z,0.88
2023-05-16T06:11:06.881Z,2.10
2023-05-16T06:13:33.977Z,1.95
2023-05-16T06:18:27.395Z,0.60
2023-05-16T06:20:54.507Z,1.27
2023-05-16T06:25:48.362Z,1.02
2023-05-16T06:28:15.188Z,1.58
2023-05-16T06:30:42.158Z,1.35
2023-05-16T06:33:08.817Z,0.43
2023-05-16T06:35:35.332Z,3.47
2023-05-16T06:38:01.807Z,2.50
2023-05-16T06:40:28.569Z,1.20
2023-05-16T06:42:55.235Z,1.00
2023-05-16T06:45:21.953Z,1.27
2023-05-16T06:47:48.604Z,0.70
2023-05-16T06:50:15.351Z,3.22
2023-05-16T06:52:41.912Z,1.73
2023-05-16T06:55:09.411Z,0.95
2023-05-16T06:57:36.103Z,1.23
2023-05-16T07:00:02.978Z,1.35
2023-05-16T07:02:29.943Z,0.60
2023-05-16T07:04:59.353Z,1.17
2023-05-16T07:07:26.006Z,3.35
2023-05-16T07:09:52.966Z,0.43
2023-05-16T07:12:19.803Z,1.15
2023-05-16T07:14:47.696Z,2.65
2023-05-16T07:17:14.500Z,3.08
2023-05-16T07:19:41.129Z,0.68
2023-05-16T07:22:07.919Z,0.60
2023-05-16T07:24:36.978Z,0.25
2023-05-16T07:27:03.861Z,1.15
2023-05-16T07:29:30.982Z,0.80
2023-05-16T07:34:27.375Z,0.75
2023-05-16T07:36:54.042Z,1.38
2023-05-16T07:39:21.025Z,0.52
2023-05-16T07:41:48.050Z,1.95
2023-05-16T07:44:14.942Z,1.00
2023-05-16T07:46:43.155Z,0.95
2023-05-16T07:49:10.363Z,1.00
2023-05-16T07:51:37.077Z,1.75
2023-05-16T07:54:04.206Z,0.30
2023-05-16T07:58:57.919Z,0.70
2023-05-16T08:01:27.621Z,1.13
2023-05-16T08:03:55.783Z,0.35
2023-05-16T08:06:22.636Z,1.20
2023-05-16T08:08:49.441Z,1.27
2023-05-16T08:11:17.983Z,0.60
2023-05-16T08:13:44.678Z,0.75
2023-05-16T08:16:11.570Z,0.55
2023-05-16T08:18:38.358Z,5.07
2023-05-16T08:21:05.512Z,3.20
2023-05-16T08:25:59.078Z,0.30
2023-05-16T08:28:25.966Z,0.28
2023-05-16T08:30:53.015Z,1.25
2023-05-16T08:33:20.454Z,0.22
2023-05-16T08:35:47.314Z,2.97
2023-05-16T08:38:14.400Z,3.40
2023-05-16T08:40:43.104Z,0.40
2023-05-16T08:43:10.830Z,0.08
2023-05-16T08:45:37.616Z,0.25
2023-05-16T08:48:08.688Z,0.47
2023-05-16T08:50:37.352Z,1.00
2023-05-16T08:53:11.754Z,0.20
2023-05-16T08:55:41.269Z,1.20
2023-05-16T08:58:08.979Z,0.95
2023-05-16T09:00:39.981Z,1.05
2023-05-16T09:03:06.843Z,0.40
2023-05-16T09:05:34.028Z,0.45
2023-05-16T09:10:27.219Z,0.43
2023-05-16T09:12:53.860Z,1.08
2023-05-16T09:15:21.065Z,0.17
2023-05-16T09:17:48.058Z,0.30
2023-05-16T09:22:51.306Z,0.10
2023-05-16T09:25:28.633Z,0.10
2023-05-16T09:27:59.081Z,0.47
2023-05-16T09:30:35.526Z,0.10
2023-05-16T09:33:02.518Z,0.00
2023-05-16T09:37:59.279Z,0.03
2023-05-16T09:40:26.091Z,0.10
2023-05-16T09:43:05.753Z,0.20
2023-05-16T09:45:33.665Z,0.10
2023-05-16T09:48:08.768Z,0.28
2023-05-16T09:50:37.392Z,2.67
2023-05-16T09:53:05.156Z,0.13
2023-05-16T09:55:32.372Z,0.35
2023-05-16T09:57:59.172Z,0.20
2023-05-16T10:00:33.161Z,0.80
2023-05-16T10:03:04.667Z,0.00
2023-05-16T10:05:33.026Z,0.50
2023-05-16T10:10:27.264Z,0.30
2023-05-16T10:12:58.893Z,0.68
2023-05-16T10:15:26.630Z,0.15
2023-05-16T10:17:56.142Z,0.30
2023-05-16T10:20:23.482Z,0.43
2023-05-16T10:22:53.338Z,0.00
2023-05-16T10:25:32.557Z,0.35
2023-05-16T10:28:01.491Z,0.38
2023-05-16T10:30:28.676Z,1.15
2023-05-16T10:32:57.911Z,0.45
2023-05-16T10:35:24.793Z,0.55
2023-05-16T10:37:53.090Z,0.00
2023-05-16T10:40:22.182Z,0.40
2023-05-16T10:43:00.600Z,0.17
2023-05-16T10:45:28.124Z,0.60
2023-05-16T10:47:58.180Z,0.25
2023-05-16T10:50:43.246Z,0.10
2023-05-16T10:53:32.720Z,1.90
2023-05-16T10:55:59.221Z,0.85
2023-05-16T10:58:35.119Z,0.52
2023-05-16T11:01:30.775Z,0.15
2023-05-16T11:03:57.590Z,0.40
2023-05-16T11:06:42.462Z,0.85
2023-05-16T11:09:12.104Z,0.32
2023-05-16T11:12:00.281Z,0.43
2023-05-16T11:14:35.201Z,0.10
2023-05-16T11:17:13.895Z,0.20
2023-05-16T11:19:46.462Z,1.75
2023-05-16T11:22:12.932Z,0.52
2023-05-16T11:24:39.963Z,0.10
2023-05-16T11:27:06.639Z,0.10
2023-05-16T11:29:36.611Z,0.88
2023-05-16T11:32:05.064Z,1.02
2023-05-16T11:34:35.968Z,0.40
2023-05-16T11:37:02.793Z,0.43
2023-05-16T11:39:32.229Z,0.47
2023-05-16T11:41:58.879Z,0.40
2023-05-16T11:44:25.681Z,0.28
2023-05-16T11:46:52.764Z,0.28
2023-05-16T11:51:46.434Z,1.00
2023-05-16T11:54:13.939Z,0.38
2023-05-16T11:56:41.290Z,0.13
2023-05-16T11:59:08.317Z,0.10
2023-05-16T12:04:07.973Z,0.10
2023-05-16T12:06:34.837Z,0.55
2023-05-16T12:09:01.596Z,0.55
2023-05-16T12:11:28.228Z,0.15
2023-05-16T12:13:54.937Z,0.45
2023-05-16T12:16:21.810Z,0.22
2023-05-16T12:18:48.513Z,0.50
2023-05-16T12:21:15.764Z,0.80
2023-05-16T12:23:42.796Z,1.35
2023-05-16T12:28:36.608Z,0.22
2023-05-16T12:31:03.479Z,0.25
2023-05-16T12:33:30.360Z,0.50
2023-05-16T12:35:58.634Z,0.38
2023-05-16T12:38:25.714Z,0.00
2023-05-16T12:41:00.626Z,0.10
2023-05-16T12:43:27.167Z,0.80
2023-05-16T12:45:56.676Z,0.25
2023-05-16T12:48:25.018Z,0.13
2023-05-16T12:50:51.548Z,0.43
2023-05-16T12:53:19.249Z,0.85
2023-05-16T12:55:46.338Z,0.65
2023-05-16T12:58:13.320Z,0.17
2023-05-16T13:03:09.180Z,0.13
2023-05-16T13:05:38.374Z,1.02
2023-05-16T13:08:05.295Z,0.20
2023-05-16T13:10:33.331Z,3.20
2023-05-16T13:13:00.499Z,0.40
2023-05-16T13:15:27.423Z,0.55
2023-05-16T13:17:54.493Z,0.00
2023-05-16T13:20:21.316Z,0.65
2023-05-16T13:22:48.166Z,0.32
2023-05-16T13:25:14.993Z,0.80
2023-05-16T13:27:41.680Z,0.32
2023-05-16T13:30:09.070Z,0.17
2023-05-16T13:32:37.179Z,0.30
2023-05-16T13:35:04.414Z,0.00
2023-05-16T13:39:59.848Z,0.00
2023-05-16T13:42:28.176Z,0.10
2023-05-16T13:44:54.984Z,0.20
2023-05-16T13:47:21.755Z,0.17
2023-05-16T13:49:48.689Z,0.50
2023-05-16T13:52:15.303Z,0.30
2023-05-16T13:54:42.006Z,4.80
2023-05-16T13:57:08.609Z,0.28
2023-05-16T13:59:59.246Z,0.98
2023-05-16T14:02:23.152Z,0.35
2023-05-16T14:04:50.162Z,0.30
2023-05-16T14:07:16.967Z,0.22
2023-05-16T14:09:43.830Z,0.15
2023-05-16T14:12:10.685Z,0.30
2023-05-16T14:14:37.942Z,0.20
2023-05-16T14:17:04.628Z,0.32
2023-05-16T14:19:31.737Z,0.28
2023-05-16T14:21:58.446Z,0.20
2023-05-16T14:24:25.051Z,0.22
2023-05-16T14:27:02.604Z,0.70
2023-05-16T14:29:29.590Z,0.25
2023-05-16T14:31:57.642Z,0.25
2023-05-16T14:34:24.468Z,3.50
2023-05-16T14:36:51.634Z,0.60
2023-05-16T14:39:19.925Z,0.15
2023-05-16T14:41:46.833Z,1.25
2023-05-16T14:44:13.647Z,0.55
2023-05-16T14:46:40.373Z,0.98
2023-05-16T14:49:07.318Z,0.22
2023-05-16T14:51:33.974Z,0.50
2023-05-16T14:54:00.603Z,0.30
2023-05-16T14:56:27.215Z,0.13
2023-05-16T14:58:53.754Z,0.10
2023-05-16T15:01:20.550Z,0.20
2023-05-16T15:03:55.242Z,0.00
2023-05-16T15:06:24.016Z,0.00
2023-05-16T15:08:50.827Z,0.05
2023-05-16T15:13:44.131Z,0.08
2023-05-16T15:16:11.248Z,0.20
2023-05-16T15:18:37.971Z,0.20
2023-05-16T15:21:10.075Z,0.00
2023-05-16T15:23:38.420Z,0.00
2023-05-16T15:26:05.485Z,0.20
2023-05-16T15:28:33.365Z,0.00
2023-05-16T15:31:01.515Z,0.08
2023-05-16T15:33:28.326Z,1.70
2023-05-16T15:35:55.203Z,1.10
2023-05-16T15:38:21.886Z,0.17
2023-05-16T15:40:52.744Z,0.55
2023-05-16T15:43:28.351Z,0.28
2023-05-16T15:45:55.364Z,0.47
2023-05-16T15:48:22.338Z,0.30
2023-05-16T15:53:15.390Z,0.10
2023-05-16T15:55:42.373Z,0.10
2023-05-16T16:00:36.204Z,0.10
2023-05-16T16:03:04.895Z,0.00
2023-05-16T16:05:31.817Z,0.25
2023-05-16T16:10:38.188Z,0.20
2023-05-16T16:13:05.372Z,0.90
2023-05-16T16:15:33.709Z,0.20
2023-05-16T16:18:01.247Z,0.00
2023-05-16T16:20:28.383Z,0.00
2023-05-16T16:22:55.248Z,0.20
2023-05-16T16:25:22.048Z,0.00
2023-05-16T16:27:48.932Z,0.25
2023-05-16T16:30:17.168Z,0.20
2023-05-16T16:32:43.840Z,0.20
2023-05-16T16:35:10.729Z,0.20
2023-05-16T16:40:04.530Z,0.10
2023-05-16T16:42:31.024Z,0.82
2023-05-16T16:44:57.694Z,0.32
2023-05-16T16:47:24.115Z,0.25
2023-05-16T16:49:50.569Z,0.10
2023-05-16T16:52:17.395Z,0.95
2023-05-16T16:54:43.928Z,0.13
2023-05-16T16:57:10.419Z,0.10
2023-05-16T16:59:36.879Z,0.22
2023-05-16T17:02:05.543Z,0.35
2023-05-16T17:04:32.134Z,0.20
2023-05-16T17:07:00.026Z,0.08
2023-05-16T17:09:26.620Z,1.27
2023-05-16T17:11:53.301Z,0.00
2023-05-16T17:14:19.794Z,0.05
2023-05-16T17:16:46.649Z,0.20
2023-05-16T17:19:14.520Z,0.10
2023-05-16T17:21:41.020Z,0.10
2023-05-16T17:24:07.795Z,0.30
2023-05-16T17:26:34.488Z,0.30
2023-05-16T17:29:01.276Z,2.10
2023-05-16T17:31:29.467Z,0.55
2023-05-16T17:33:56.572Z,0.40
2023-05-16T17:36:23.648Z,0.08
2023-05-16T17:38:50.333Z,0.10
2023-05-16T17:41:16.944Z,0.93
2023-05-16T17:43:45.761Z,0.08
2023-05-16T17:46:12.612Z,0.00
2023-05-16T17:48:41.014Z,0.45
2023-05-16T17:51:09.539Z,0.80
2023-05-16T17:53:36.329Z,0.00
2023-05-16T17:56:02.906Z,0.00
2023-05-16T17:58:32.460Z,2.25
2023-05-16T18:00:58.981Z,0.20
2023-05-16T18:03:26.490Z,1.48
2023-05-16T18:05:54.170Z,0.20
2023-05-16T18:08:20.931Z,0.10
2023-05-16T18:10:51.725Z,0.20
2023-05-16T18:13:19.449Z,0.10
2023-05-16T18:15:46.623Z,0.20
2023-05-16T18:18:13.208Z,0.00
2023-05-16T18:20:40.023Z,0.00
2023-05-16T18:23:10.673Z,0.10
2023-05-16T18:25:43.323Z,0.00
2023-05-16T18:28:10.190Z,0.40
2023-05-16T18:30:38.154Z,0.00
2023-05-16T18:33:09.398Z,0.22
2023-05-16T18:35:36.432Z,0.13
2023-05-16T18:40:33.922Z,0.00
2023-05-16T18:43:03.155Z,0.00
2023-05-16T18:45:31.933Z,0.10
2023-05-16T18:47:58.692Z,0.00
2023-05-16T18:50:26.692Z,0.17
2023-05-16T18:52:53.493Z,0.00
2023-05-16T18:55:20.160Z,0.25
2023-05-16T18:57:46.659Z,0.00
2023-05-16T19:00:13.677Z,0.00
2023-05-16T19:05:11.104Z,0.00
2023-05-16T19:07:38.103Z,0.05
2023-05-16T19:10:05.013Z,0.30
2023-05-16T19:12:31.564Z,0.10
2023-05-16T19:14:58.592Z,0.30
2023-05-16T19:19:51.720Z,0.13
2023-05-16T19:22:19.299Z,0.10
2023-05-16T19:24:46.124Z,0.00
2023-05-16T19:29:41.943Z,0.00
2023-05-16T19:32:08.767Z,0.13
2023-05-16T19:34:35.687Z,0.00
2023-05-16T19:37:02.459Z,0.00
2023-05-16T19:39:29.319Z,0.45
2023-05-16T19:41:57.042Z,0.65
2023-05-16T19:44:23.570Z,1.20
2023-05-16T19:46:50.243Z,1.48
2023-05-16T19:49:19.627Z,5.78
2023-05-16T19:51:47.220Z,0.88
2023-05-16T19:54:14.113Z,1.75
2023-05-16T19:56:40.663Z,0.75
2023-05-16T19:59:10.373Z,0.70
2023-05-16T20:04:08.049Z,1.88
2023-05-16T20:06:35.012Z,1.27
2023-05-16T20:09:01.640Z,1.27
2023-05-16T20:11:33.825Z,3.55
2023-05-16T20:14:01.716Z,2.00
2023-05-16T20:16:29.848Z,1.08
2023-05-16T20:18:56.651Z,2.05
2023-05-16T20:21:23.732Z,0.95
2023-05-16T20:23:51.020Z,1.20
2023-05-16T20:26:20.662Z,0.88
2023-05-16T20:28:47.697Z,3.78
2023-05-16T20:33:41.182Z,0.50
2023-05-16T20:36:08.047Z,0.57
2023-05-16T20:38:34.878Z,1.23
2023-05-16T20:41:01.558Z,1.15
2023-05-16T20:43:28.409Z,1.23
2023-05-16T20:45:55.232Z,0.20
2023-05-16T20:48:22.196Z,0.68
2023-05-16T20:50:50.531Z,4.82
2023-05-16T20:53:17.232Z,2.17
2023-05-16T20:55:43.920Z,2.50
2023-05-16T20:58:10.736Z,2.05
2023-05-16T21:00:41.271Z,1.13
2023-05-16T21:03:10.291Z,5.28
2023-05-16T21:05:38.850Z,1.02
2023-05-16T21:08:07.125Z,0.80
2023-05-16T21:10:33.993Z,2.00
2023-05-16T21:13:03.002Z,0.50
2023-05-16T21:15:30.443Z,4.20
2023-05-16T21:17:57.584Z,1.50
2023-05-16T21:22:51.666Z,1.42
2023-05-16T21:25:18.456Z,0.45
2023-05-16T21:27:48.022Z,0.45
2023-05-16T21:30:18.577Z,2.47
2023-05-16T21:32:45.462Z,0.95
2023-05-16T21:35:12.244Z,1.45
2023-05-16T21:37:39.024Z,0.90
2023-05-16T21:40:06.662Z,1.02
2023-05-16T21:42:33.244Z,1.15
2023-05-16T21:44:59.912Z,1.25
2023-05-16T21:47:26.454Z,3.75
2023-05-16T21:49:53.468Z,0.95
2023-05-16T21:52:20.385Z,2.67
2023-05-16T21:54:46.909Z,0.40
2023-05-16T21:57:15.610Z,0.93
2023-05-16T21:59:43.677Z,0.52
2023-05-16T22:02:10.622Z,0.73
2023-05-16T22:04:37.483Z,1.13
2023-05-16T22:07:04.352Z,0.93
2023-05-16T22:09:31.210Z,2.50
2023-05-16T22:12:00.213Z,1.25
2023-05-16T22:14:26.814Z,1.60
2023-05-16T22:16:56.088Z,0.63
2023-05-16T22:19:22.941Z,1.42
2023-05-16T22:21:49.746Z,1.55
2023-05-16T22:24:16.742Z,1.10
2023-05-16T22:26:43.433Z,1.52
2023-05-16T22:29:10.344Z,1.05
2023-05-16T22:31:37.181Z,2.53
2023-05-16T22:34:06.582Z,0.38
2023-05-16T22:36:33.763Z,0.65
2023-05-16T22:39:02.420Z,0.47
2023-05-16T22:41:29.169Z,2.20
2023-05-16T22:43:55.911Z,1.17
2023-05-16T22:46:22.768Z,3.10
2023-05-16T22:48:49.669Z,0.55
2023-05-16T22:51:16.856Z,5.10
2023-05-16T22:53:43.973Z,0.82
2023-05-16T22:56:10.675Z,1.05
2023-05-16T22:58:37.149Z,1.42
2023-05-16T23:01:04.003Z,1.20
2023-05-16T23:03:30.623Z,0.43
2023-05-16T23:05:57.612Z,0.60
2023-05-16T23:08:24.117Z,1.20
2023-05-16T23:10:51.030Z,0.60
2023-05-16T23:13:17.738Z,0.45
2023-05-16T23:15:44.555Z,3.83
2023-05-16T23:18:13.368Z,1.23
2023-05-16T23:20:40.432Z,2.03
2023-05-16T23:23:07.283Z,2.00
2023-05-16T23:25:33.892Z,1.95
2023-05-16T23:28:00.439Z,2.97
2023-05-16T23:30:27.057Z,2.20
2023-05-16T23:32:55.973Z,0.70
2023-05-16T23:35:23.949Z,3.20
2023-05-16T23:37:50.851Z,2.08
2023-05-16T23:40:17.759Z,4.65
2023-05-16T23:42:44.288Z,0.65
2023-05-16T23:45:11.782Z,1.52
2023-05-16T23:47:39.004Z,4.32
2023-05-16T23:52:32.982Z,2.15
2023-05-16T23:54:59.534Z,0.95
2023-05-16T23:57:26.036Z,0.93
2023-05-16T23:59:52.880Z,2.05
